Time;durP1;ratioP1;P1;durP2;ratioP2;P2;SDS_P1;SDS_P2;PMS_P1;PMS_P2;Temp;Humidity;BMP_temperature;BMP_pressure;BME280_temperature;BME280_humidity;BME280_pressure;Samples;Min_cycle;Max_cycle;Signal;HPM_P1;HPM_P2
2024/03/16 00:00:27;;;;;;;12.75;5.15;;;;;;;1.26;100.00;100826.25;5042417;28;20127;-72
2024/03/16 00:02:53;;;;;;;10.63;4.53;;;;;;;1.28;100.00;100827.81;5042418;28;20071;-72
2024/03/16 00:05:19;;;;;;;7.40;4.05;;;;;;;1.24;100.00;100825.50;5043100;28;20054;-72
2024/03/16 00:07:45;;;;;;;9.85;4.43;;;;;;;1.15;100.00;100829.69;5042241;28;20094;-72
2024/03/16 00:10:12;;;;;;;10.90;4.15;;;;;;;1.14;100.00;100824.50;5042169;28;20044;-72
2024/03/16 00:12:38;;;;;;;10.23;4.63;;;;;;;1.16;100.00;100831.38;5059035;28;20037;-72
2024/03/16 00:15:04;;;;;;;7.63;4.22;;;;;;;1.09;100.00;100831.00;5058553;28;20175;-72
2024/03/16 00:17:30;;;;;;;9.30;3.85;;;;;;;1.03;100.00;100825.28;5058147;28;20037;-72
2024/03/16 00:19:55;;;;;;;9.23;4.60;;;;;;;0.95;100.00;100835.59;5042029;28;20037;-72
2024/03/16 00:22:21;;;;;;;6.50;3.65;;;;;;;0.95;100.00;100835.59;5042059;28;20055;-72
2024/03/16 00:24:47;;;;;;;10.93;4.72;;;;;;;1.05;100.00;100829.50;5042048;28;20040;-72
2024/03/16 00:27:13;;;;;;;10.65;4.30;;;;;;;1.23;100.00;100831.78;5041621;28;20085;-72
2024/03/16 00:29:38;;;;;;;6.07;3.85;;;;;;;1.29;100.00;100828.66;5042070;28;20051;-72
2024/03/16 00:32:05;;;;;;;9.18;4.20;;;;;;;1.25;100.00;100833.34;5042178;28;20467;-72
2024/03/16 00:34:30;;;;;;;11.60;4.55;;;;;;;1.28;100.00;100833.13;5041720;28;20036;-72
2024/03/16 00:36:57;;;;;;;12.32;4.30;;;;;;;1.39;100.00;100837.63;5041718;28;20048;-72
2024/03/16 00:39:23;;;;;;;8.23;4.65;;;;;;;1.52;100.00;100835.72;5041857;28;20498;-72
2024/03/16 00:41:49;;;;;;;9.30;4.53;;;;;;;1.63;100.00;100829.63;5041693;28;20032;-74
2024/03/16 00:44:15;;;;;;;12.63;4.63;;;;;;;1.68;100.00;100824.81;5041983;28;20077;-72
2024/03/16 00:46:41;;;;;;;12.40;4.63;;;;;;;1.78;100.00;100832.09;5040198;28;20448;-72
2024/03/16 00:49:06;;;;;;;14.45;4.60;;;;;;;1.83;100.00;100828.09;5041549;28;20036;-72
2024/03/16 00:51:33;;;;;;;11.02;4.82;;;;;;;1.88;100.00;100836.56;5041210;28;20406;-72
2024/03/16 00:54:00;;;;;;;10.68;4.78;;;;;;;1.99;100.00;100838.38;5041508;28;20032;-72
2024/03/16 00:56:27;;;;;;;9.25;5.15;;;;;;;2.18;100.00;100835.97;5041646;28;20078;-73
2024/03/16 00:58:52;;;;;;;11.02;5.28;;;;;;;2.42;100.00;100838.50;5041415;28;20040;-72
2024/03/16 01:01:18;;;;;;;9.95;5.00;;;;;;;2.57;100.00;100835.63;5074117;28;20031;-73
2024/03/16 01:03:44;;;;;;;14.73;5.82;;;;;;;2.63;100.00;100825.34;5041253;28;20070;-73
2024/03/16 01:06:09;;;;;;;12.18;5.13;;;;;;;2.70;100.00;100815.09;5041679;28;20124;-73
2024/03/16 01:08:35;;;;;;;13.48;6.13;;;;;;;2.70;100.00;100809.78;5041756;28;20337;-73
2024/03/16 01:11:01;;;;;;;11.10;5.07;;;;;;;2.69;100.00;100815.19;5041179;28;20427;-72
2024/03/16 01:13:27;;;;;;;12.10;4.75;;;;;;;2.55;100.00;100827.78;5057152;28;20085;-72
2024/03/16 01:15:52;;;;;;;10.88;4.72;;;;;;;2.44;100.00;100827.78;5074089;28;20028;-72
2024/03/16 01:18:18;;;;;;;11.05;5.45;;;;;;;2.27;100.00;100815.84;5057078;28;20356;-72
2024/03/16 01:20:44;;;;;;;10.55;4.97;;;;;;;2.18;100.00;100803.31;5040858;28;20118;-72
2024/03/16 01:23:12;;;;;;;8.77;5.30;;;;;;;2.09;100.00;100799.56;5041187;28;20118;-72
2024/03/16 01:25:39;;;;;;;11.27;4.72;;;;;;;2.05;100.00;100786.66;5040990;28;20028;-72
2024/03/16 01:28:04;;;;;;;10.13;4.70;;;;;;;2.01;100.00;100794.00;5057391;28;20475;-72
2024/03/16 01:30:30;;;;;;;15.45;5.90;;;;;;;1.98;100.00;100791.59;5040783;28;20067;-72
2024/03/16 01:32:56;;;;;;;10.50;4.72;;;;;;;2.03;100.00;100791.25;5057111;28;20107;-72
2024/03/16 01:35:22;;;;;;;12.60;5.82;;;;;;;1.96;100.00;100785.59;5040565;28;20368;-72
2024/03/16 01:37:48;;;;;;;10.45;5.90;;;;;;;1.91;100.00;100785.09;5040549;28;20471;-72
2024/03/16 01:40:13;;;;;;;14.15;6.07;;;;;;;1.97;100.00;100780.16;5040510;28;20033;-72
2024/03/16 01:42:39;;;;;;;13.38;7.28;;;;;;;2.09;100.00;100781.00;5040519;28;20086;-72
2024/03/16 01:45:08;;;;;;;19.30;8.25;;;;;;;2.11;100.00;100778.22;5040407;28;20036;-72
2024/03/16 01:47:33;;;;;;;17.02;7.35;;;;;;;2.07;100.00;100782.94;5056934;28;20036;-72
2024/03/16 01:49:59;;;;;;;16.13;8.45;;;;;;;1.99;100.00;100780.03;5040366;28;20046;-72
2024/03/16 01:52:28;;;;;;;24.92;11.63;;;;;;;2.09;100.00;100785.44;5040248;28;20437;-72
2024/03/16 01:54:54;;;;;;;27.90;11.13;;;;;;;2.28;100.00;100779.56;5041225;28;20051;-72
2024/03/16 01:57:19;;;;;;;16.23;8.15;;;;;;;2.36;100.00;100766.53;5040002;28;20375;-72
2024/03/16 01:59:45;;;;;;;19.40;8.77;;;;;;;2.40;100.00;100771.44;5040113;28;20089;-72
2024/03/16 02:02:33;;;;;;;20.58;9.82;;;;;;;2.47;100.00;100763.84;5040140;28;20428;-72
2024/03/16 02:05:03;;;;;;;25.95;12.20;;;;;;;2.54;100.00;100759.72;5040022;28;20036;-72
2024/03/16 02:07:30;;;;;;;20.88;10.85;;;;;;;2.64;100.00;100755.34;5056696;28;20111;-72
2024/03/16 02:09:59;;;;;;;28.25;12.48;;;;;;;2.70;100.00;100754.03;5056612;28;20131;-72
2024/03/16 02:12:24;;;;;;;31.52;15.88;;;;;;;2.72;100.00;100756.53;5056571;28;20102;-72
2024/03/16 02:14:50;;;;;;;31.63;10.77;;;;;;;2.81;100.00;100750.50;5040135;28;20028;-72
2024/03/16 02:17:16;;;;;;;30.45;14.80;;;;;;;2.88;100.00;100756.13;5039994;28;20524;-72
2024/03/16 02:19:42;;;;;;;25.38;12.52;;;;;;;2.92;100.00;100757.56;5056566;28;20123;-72
2024/03/16 02:22:08;;;;;;;29.13;13.52;;;;;;;2.96;100.00;100748.38;5039784;28;20514;-72
2024/03/16 02:24:35;;;;;;;23.25;11.32;;;;;;;3.05;100.00;100752.94;5039878;28;20131;-72
2024/03/16 02:27:01;;;;;;;33.75;13.88;;;;;;;3.11;100.00;100743.59;5055822;28;20029;-73
2024/03/16 02:29:27;;;;;;;31.38;14.98;;;;;;;3.17;100.00;100748.41;5056797;28;20083;-72
2024/03/16 02:31:54;;;;;;;40.97;21.02;;;;;;;3.25;100.00;100740.63;5039561;28;20040;-72
2024/03/16 02:34:19;;;;;;;29.92;13.63;;;;;;;3.30;100.00;100735.75;5056062;28;20036;-72
2024/03/16 02:36:45;;;;;;;32.70;13.70;;;;;;;3.33;100.00;100735.50;5039619;28;20040;-72
2024/03/16 02:39:11;;;;;;;28.40;14.98;;;;;;;3.39;100.00;100734.16;5039599;28;20364;-73
2024/03/16 02:41:37;;;;;;;39.33;18.08;;;;;;;3.47;100.00;100727.22;5039493;28;20528;-72
2024/03/16 02:44:03;;;;;;;28.75;14.15;;;;;;;3.52;100.00;100722.34;5040368;28;20055;-72
2024/03/16 02:46:29;;;;;;;33.45;15.70;;;;;;;3.55;100.00;100726.56;5039253;28;20371;-72
2024/03/16 02:48:54;;;;;;;33.00;15.10;;;;;;;3.61;100.00;100725.19;5039490;28;20070;-72
2024/03/16 02:51:20;;;;;;;24.73;10.95;;;;;;;3.66;100.00;100720.31;5055882;28;20043;-72
2024/03/16 02:53:46;;;;;;;24.33;10.90;;;;;;;3.68;100.00;100713.91;5072467;28;20383;-72
2024/03/16 02:56:12;;;;;;;22.52;10.85;;;;;;;3.75;100.00;100719.50;5039366;28;20446;-72
2024/03/16 02:58:39;;;;;;;28.42;10.75;;;;;;;3.77;100.00;100706.94;5039405;28;20056;-72
2024/03/16 03:01:05;;;;;;;23.40;10.88;;;;;;;3.83;100.00;100713.53;5039374;28;20059;-72
2024/03/16 03:03:30;;;;;;;25.67;10.48;;;;;;;3.87;100.00;100705.16;5039263;28;20382;-72
2024/03/16 03:05:56;;;;;;;21.20;9.80;;;;;;;3.91;100.00;100708.38;5055899;28;20036;-72
2024/03/16 03:08:22;;;;;;;23.35;10.27;;;;;;;3.94;100.00;100702.78;5039179;28;20043;-72
2024/03/16 03:10:47;;;;;;;19.17;9.32;;;;;;;3.96;100.00;100701.69;5041607;28;20043;-72
2024/03/16 03:13:13;;;;;;;24.60;11.18;;;;;;;4.00;100.00;100701.44;5059421;28;20024;-72
2024/03/16 03:15:39;;;;;;;20.15;9.07;;;;;;;4.04;100.00;100698.34;5043266;28;20032;-72
2024/03/16 03:18:05;;;;;;;20.02;9.32;;;;;;;4.10;100.00;100689.84;5043144;28;20082;-72
2024/03/16 03:20:32;;;;;;;24.13;11.48;;;;;;;4.16;100.00;100693.78;5043811;28;20040;-72
2024/03/16 03:22:58;;;;;;;18.98;6.93;;;;;;;4.19;100.00;100693.50;5043421;28;20036;-72
2024/03/16 03:25:24;;;;;;;18.27;8.38;;;;;;;4.24;100.00;100699.28;5075847;28;20075;-72
2024/03/16 03:27:50;;;;;;;15.52;7.88;;;;;;;4.27;100.00;100703.47;5043055;28;20060;-72
2024/03/16 03:30:15;;;;;;;18.08;8.48;;;;;;;4.31;100.00;100695.09;5060376;28;20036;-72
2024/03/16 03:32:41;;;;;;;14.82;6.30;;;;;;;4.34;100.00;100699.28;5043524;28;20032;-72
2024/03/16 03:35:07;;;;;;;13.95;5.80;;;;;;;4.37;100.00;100702.53;5042728;28;20055;-72
2024/03/16 03:37:35;;;;;;;10.55;4.10;;;;;;;4.43;100.00;100686.97;5043063;28;20036;-72
2024/03/16 03:40:00;;;;;;;8.85;3.70;;;;;;;4.53;100.00;100688.66;5042806;28;20072;-72
2024/03/16 03:42:29;;;;;;;11.07;2.85;;;;;;;4.69;100.00;100682.81;5043399;28;20132;-72
2024/03/16 03:45:38;;;;;;;9.23;2.35;;;;;;;4.88;100.00;100683.78;5043088;28;20064;-73
2024/03/16 03:48:00;;;;;;;8.93;2.35;;;;;;;5.00;100.00;100680.84;5060333;28;20042;-72
2024/03/16 03:50:29;;;;;;;4.53;1.80;;;;;;;5.13;100.00;100683.19;5061082;28;20095;-72
2024/03/16 03:52:55;;;;;;;8.57;2.53;;;;;;;5.21;100.00;100680.66;5042880;28;20044;-72
2024/03/16 03:55:22;;;;;;;5.03;1.92;;;;;;;5.26;100.00;100678.38;5042581;28;20043;-72
2024/03/16 03:57:47;;;;;;;7.78;2.40;;;;;;;5.31;100.00;100675.31;5043137;28;20028;-72
2024/03/16 04:00:16;;;;;;;10.57;3.10;;;;;;;5.33;100.00;100672.50;5058604;28;20386;-72
2024/03/16 04:02:41;;;;;;;11.68;2.05;;;;;;;5.35;100.00;100671.38;5042736;28;20028;-72
2024/03/16 04:05:07;;;;;;;7.03;2.05;;;;;;;5.40;100.00;100670.91;5042347;28;20417;-73
2024/03/16 04:07:33;;;;;;;5.72;2.10;;;;;;;5.42;100.00;100679.63;5042007;28;20109;-72
2024/03/16 04:10:01;;;;;;;5.95;2.10;;;;;;;5.43;100.00;100670.66;5042300;28;20043;-73
2024/03/16 04:12:27;;;;;;;5.90;2.40;;;;;;;5.46;100.00;100665.03;5042593;28;20048;-73
2024/03/16 04:14:53;;;;;;;5.00;2.20;;;;;;;5.48;100.00;100674.56;5042178;28;20127;-72
2024/03/16 04:17:19;;;;;;;3.47;1.23;;;;;;;5.48;100.00;100669.22;5058767;28;20043;-72
2024/03/16 04:19:44;;;;;;;6.32;1.75;;;;;;;5.49;100.00;100668.22;5042096;28;20041;-72
2024/03/16 04:22:11;;;;;;;6.53;1.83;;;;;;;5.54;100.00;100661.63;5041913;28;20043;-72
2024/03/16 04:24:37;;;;;;;6.55;2.45;;;;;;;5.53;100.00;100652.81;5058699;28;20043;-72
2024/03/16 04:27:03;;;;;;;3.03;1.60;;;;;;;5.53;100.00;100650.13;5041766;28;20178;-72
2024/03/16 04:29:31;;;;;;;5.85;2.10;;;;;;;5.56;100.00;100648.97;5041903;28;20119;-72
2024/03/16 04:31:57;;;;;;;5.07;2.33;;;;;;;5.60;100.00;100645.88;5075261;28;20079;-72
2024/03/16 04:34:25;;;;;;;5.53;2.38;;;;;;;5.63;100.00;100637.56;5074604;28;20387;-73
2024/03/16 04:36:54;;;;;;;5.00;2.30;;;;;;;5.66;100.00;100636.44;5041926;28;20119;-72
2024/03/16 04:39:22;;;;;;;7.03;2.95;;;;;;;5.67;100.00;100632.81;5041700;28;20130;-72
2024/03/16 04:41:52;;;;;;;3.35;2.08;;;;;;;5.67;100.00;100646.97;5058649;28;20466;-72
2024/03/16 04:44:18;;;;;;;7.53;2.47;;;;;;;5.68;100.00;100631.81;5074697;28;20032;-72
2024/03/16 04:46:44;;;;;;;9.35;2.67;;;;;;;5.69;100.00;100636.19;5041872;28;20368;-72
2024/03/16 04:49:09;;;;;;;5.32;2.42;;;;;;;5.70;100.00;100641.34;5041646;28;20356;-72
2024/03/16 04:51:35;;;;;;;3.13;1.70;;;;;;;5.73;100.00;100640.22;5041771;28;20467;-72
2024/03/16 04:54:01;;;;;;;9.05;2.28;;;;;;;5.81;100.00;100642.16;5074190;28;20031;-72
2024/03/16 04:56:28;;;;;;;5.20;2.38;;;;;;;5.92;100.00;100644.59;5058047;28;20040;-72
2024/03/16 04:58:53;;;;;;;6.57;2.60;;;;;;;5.95;100.00;100639.00;5041359;28;20127;-72
2024/03/16 05:01:20;;;;;;;11.20;3.30;;;;;;;5.98;100.00;100637.88;5041071;28;20119;-73
2024/03/16 05:03:46;;;;;;;7.22;2.63;;;;;;;6.06;100.00;100638.81;5041394;28;20078;-72
2024/03/16 05:06:12;;;;;;;11.20;3.65;;;;;;;6.11;100.00;100641.03;5074519;28;20028;-72
2024/03/16 05:08:38;;;;;;;9.45;3.42;;;;;;;6.16;100.00;100636.06;5057318;28;20098;-72
2024/03/16 05:11:04;;;;;;;5.00;2.50;;;;;;;6.21;100.00;100627.63;5041169;28;20467;-72
2024/03/16 05:13:29;;;;;;;9.70;2.90;;;;;;;6.22;100.00;100630.16;5041070;28;20033;-72
2024/03/16 05:15:57;;;;;;;6.28;2.88;;;;;;;6.25;100.00;100621.00;5041038;28;20036;-72
2024/03/16 05:18:23;;;;;;;9.90;3.42;;;;;;;6.26;100.00;100625.34;5041210;28;20043;-72
2024/03/16 05:20:50;;;;;;;12.65;4.53;;;;;;;6.25;100.00;100624.50;5040819;28;20037;-73
2024/03/16 05:23:16;;;;;;;5.93;2.75;;;;;;;6.27;100.00;100627.00;5040903;28;20086;-72
2024/03/16 05:25:48;;;;;;;9.23;3.28;;;;;;;6.26;100.00;100625.34;5040738;28;20032;-73
2024/03/16 05:28:14;;;;;;;8.52;3.50;;;;;;;6.27;100.00;100630.53;5074029;28;20085;-73
2024/03/16 05:30:39;;;;;;;7.75;3.53;;;;;;;6.28;100.00;100626.03;5040848;28;20553;-73
2024/03/16 05:33:05;;;;;;;7.85;2.38;;;;;;;6.28;100.00;100628.72;5073917;28;20103;-73
2024/03/16 05:35:40;;;;;;;2.42;1.88;;;;;;;6.30;100.00;100626.72;5040383;28;20490;-73
2024/03/16 05:38:06;;;;;;;6.80;2.42;;;;;;;6.31;100.00;100629.22;5057641;28;20032;-73
2024/03/16 05:40:32;;;;;;;6.82;2.35;;;;;;;6.35;100.00;100621.75;5040501;28;20039;-73
2024/03/16 05:42:57;;;;;;;3.55;2.20;;;;;;;6.34;100.00;100622.75;5040489;28;20056;-73
2024/03/16 05:45:23;;;;;;;2.13;1.70;;;;;;;6.35;100.00;100622.63;5040924;28;20063;-73
2024/03/16 05:47:48;;;;;;;2.38;1.40;;;;;;;6.36;100.00;100615.44;5040144;28;20387;-73
2024/03/16 05:50:14;;;;;;;5.43;1.73;;;;;;;6.39;100.00;100617.78;5056956;28;20041;-73
2024/03/16 05:52:40;;;;;;;3.65;1.35;;;;;;;6.39;100.00;100607.13;5040334;28;20055;-72
2024/03/16 05:55:05;;;;;;;3.38;1.50;;;;;;;6.39;100.00;100604.44;5040298;28;20098;-73
2024/03/16 05:57:31;;;;;;;1.65;1.25;;;;;;;6.39;100.00;100613.28;5040153;28;20028;-72
2024/03/16 05:59:57;;;;;;;5.07;1.75;;;;;;;6.39;100.00;100607.13;5040299;28;20040;-73
2024/03/16 06:02:22;;;;;;;4.57;1.90;;;;;;;6.39;100.00;100607.13;5040161;28;20536;-73
2024/03/16 06:04:48;;;;;;;2.63;1.80;;;;;;;6.40;100.00;100611.44;5040888;28;20037;-73
2024/03/16 06:07:15;;;;;;;3.67;1.60;;;;;;;6.41;100.00;100602.47;5040754;28;20450;-73
2024/03/16 06:09:40;;;;;;;4.25;2.30;;;;;;;6.46;100.00;100600.19;5056450;28;20075;-73
2024/03/16 06:12:06;;;;;;;6.50;1.60;;;;;;;6.46;100.00;100605.53;5040035;28;20060;-73
2024/03/16 06:14:31;;;;;;;1.63;1.15;;;;;;;6.47;100.00;100599.19;5039985;28;20036;-73
2024/03/16 06:16:57;;;;;;;4.18;1.88;;;;;;;6.47;100.00;100599.19;5056247;28;20034;-73
2024/03/16 06:19:23;;;;;;;2.13;1.70;;;;;;;6.50;100.00;100595.38;5072945;28;20032;-73
2024/03/16 06:21:49;;;;;;;5.13;1.95;;;;;;;6.51;100.00;100597.91;5039899;28;20162;-73
2024/03/16 06:24:14;;;;;;;5.95;2.60;;;;;;;6.50;100.00;100588.19;5056187;28;20052;-73
2024/03/16 06:26:41;;;;;;;4.40;1.45;;;;;;;6.49;100.00;100583.84;5039572;28;20489;-74
2024/03/16 06:29:08;;;;;;;1.48;1.20;;;;;;;6.50;100.00;100585.50;5056347;28;20040;-73
2024/03/16 06:32:05;;;;;;;3.45;1.50;;;;;;;6.52;100.00;100580.84;5056277;28;20033;-73
2024/03/16 06:34:20;;;;;;;1.45;1.13;;;;;;;6.54;100.00;100576.22;5073683;28;20048;-73
2024/03/16 06:36:46;;;;;;;1.55;1.10;;;;;;;6.58;100.00;100587.41;5072326;28;20029;-73
2024/03/16 06:39:11;;;;;;;3.78;1.30;;;;;;;6.62;100.00;100572.78;5040036;28;20056;-73
2024/03/16 06:41:37;;;;;;;0.60;0.60;;;;;;;6.66;100.00;100567.94;5072637;28;20446;-73
2024/03/16 06:44:03;;;;;;;2.22;1.48;;;;;;;6.68;100.00;100569.47;5039012;28;20388;-73
2024/03/16 06:46:29;;;;;;;2.10;1.50;;;;;;;6.69;100.00;100565.78;5038988;28;20098;-73
2024/03/16 06:48:54;;;;;;;7.03;1.35;;;;;;;6.69;100.00;100568.47;5039453;28;20028;-73
2024/03/16 06:51:20;;;;;;;1.52;1.00;;;;;;;6.77;100.00;100570.38;5039184;28;20520;-73
2024/03/16 06:53:47;;;;;;;3.92;1.45;;;;;;;6.80;100.00;100562.88;5039398;28;20025;-73
2024/03/16 06:56:14;;;;;;;1.92;1.33;;;;;;;6.78;100.00;100566.72;5056009;28;20032;-73
2024/03/16 06:58:40;;;;;;;2.58;1.20;;;;;;;6.82;100.00;100571.56;5039419;28;20036;-73
2024/03/16 07:01:07;;;;;;;7.40;2.80;;;;;;;6.83;100.00;100570.59;5072172;28;20024;-73
2024/03/16 07:03:32;;;;;;;3.25;1.73;;;;;;;6.85;100.00;100557.06;5055906;28;20550;-73
2024/03/16 07:05:58;;;;;;;0.80;0.80;;;;;;;6.89;100.00;100562.94;5055511;28;20047;-73
2024/03/16 07:08:24;;;;;;;2.63;1.50;;;;;;;6.92;100.00;100559.94;5039946;28;20043;-73
2024/03/16 07:10:50;;;;;;;3.25;1.75;;;;;;;6.96;100.00;100556.81;5055692;28;20537;-73
2024/03/16 07:13:15;;;;;;;1.48;1.10;;;;;;;7.01;100.00;100549.16;5055294;28;20107;-73
2024/03/16 07:15:41;;;;;;;1.30;0.90;;;;;;;7.07;100.00;100554.88;5039176;28;20051;-73
2024/03/16 07:18:07;;;;;;;2.28;1.23;;;;;;;7.09;100.00;100551.03;5055592;28;20028;-73
2024/03/16 07:20:33;;;;;;;1.55;1.30;;;;;;;7.13;100.00;100556.91;5038855;28;20044;-73
2024/03/16 07:22:59;;;;;;;1.77;1.17;;;;;;;7.18;100.00;100554.59;5039199;28;20475;-73
2024/03/16 07:25:25;;;;;;;6.35;1.35;;;;;;;7.20;100.00;100548.09;5038941;28;20044;-73
2024/03/16 07:27:51;;;;;;;2.30;1.15;;;;;;;7.17;100.00;100543.06;5039099;28;20040;-73
2024/03/16 07:30:18;;;;;;;2.53;1.05;;;;;;;7.18;100.00;100544.75;5072284;28;20029;-73
2024/03/16 07:32:46;;;;;;;1.60;1.08;;;;;;;7.18;100.00;100539.38;5039184;28;20059;-74
2024/03/16 07:35:13;;;;;;;3.70;1.95;;;;;;;7.23;100.00;100522.88;5055304;28;20074;-73
2024/03/16 07:37:39;;;;;;;3.45;1.40;;;;;;;7.25;100.00;100521.72;5038992;28;20067;-74
2024/03/16 07:40:13;;;;;;;3.58;1.27;;;;;;;7.28;100.00;100509.88;5071758;28;20028;-73
2024/03/16 07:42:42;;;;;;;1.98;1.40;;;;;;;7.31;100.00;100512.22;5072365;28;20378;-73
2024/03/16 07:45:08;;;;;;;2.38;1.17;;;;;;;7.36;100.00;100511.75;5038858;28;20166;-73
2024/03/16 07:47:34;;;;;;;2.78;1.13;;;;;;;7.37;100.00;100522.25;5055061;28;20028;-73
2024/03/16 07:49:59;;;;;;;3.20;1.40;;;;;;;7.40;100.00;100518.44;5038834;28;20044;-73
2024/03/16 07:52:27;;;;;;;4.07;1.50;;;;;;;7.45;100.00;100522.28;5055035;28;20383;-73
2024/03/16 07:54:53;;;;;;;2.42;1.10;;;;;;;7.52;100.00;100527.00;5039056;28;20374;-73
2024/03/16 07:57:18;;;;;;;1.58;1.30;;;;;;;7.61;100.00;100532.22;5041431;28;20032;-73
2024/03/16 07:59:45;;;;;;;0.70;0.70;;;;;;;7.73;100.00;100524.75;5042583;28;20029;-73
2024/03/16 08:02:10;;;;;;;1.52;1.00;;;;;;;7.81;100.00;100531.97;5059145;28;20037;-73
2024/03/16 08:04:36;;;;;;;1.50;0.90;;;;;;;7.85;100.00;100522.59;5042391;28;20128;-73
2024/03/16 08:07:03;;;;;;;1.70;1.25;;;;;;;7.87;100.00;100521.41;5042121;28;20032;-73
2024/03/16 08:09:29;;;;;;;1.25;0.90;;;;;;;7.88;100.00;100509.69;5042413;28;20127;-73
2024/03/16 08:11:57;;;;;;;3.92;1.10;;;;;;;7.90;100.00;100510.38;5042290;28;20032;-73
2024/03/16 08:14:31;;;;;;;4.32;1.08;;;;;;;7.98;100.00;100506.03;5042328;28;20094;-73
2024/03/16 08:16:57;;;;;;;1.88;1.17;;;;;;;8.00;100.00;100502.19;5043632;28;20475;-73
2024/03/16 08:19:22;;;;;;;2.20;1.33;;;;;;;8.03;100.00;100501.03;5059343;28;20082;-73
2024/03/16 08:21:48;;;;;;;0.60;0.60;;;;;;;8.07;100.00;100500.53;5042122;28;20471;-73
2024/03/16 08:24:16;;;;;;;0.57;0.57;;;;;;;8.09;100.00;100501.19;5042061;28;20063;-73
2024/03/16 08:26:44;;;;;;;2.20;1.20;;;;;;;8.07;100.00;100500.53;5041859;28;20029;-73
2024/03/16 08:29:09;;;;;;;0.77;0.77;;;;;;;8.07;100.00;100499.69;5042710;28;20063;-73
2024/03/16 08:31:35;;;;;;;2.90;0.93;;;;;;;8.07;100.00;100497.88;5041887;28;20080;-73
2024/03/16 08:34:01;;;;;;;5.10;2.00;;;;;;;8.06;100.00;100495.34;5041731;28;20033;-73
2024/03/16 08:36:26;;;;;;;2.95;1.48;;;;;;;8.08;100.00;100501.38;5041720;28;20093;-73
2024/03/16 08:38:52;;;;;;;1.45;1.27;;;;;;;8.10;100.00;100496.69;5041625;28;20045;-73
2024/03/16 08:41:17;;;;;;;2.15;1.20;;;;;;;8.14;100.00;100490.81;5041550;28;20138;-73
2024/03/16 08:43:43;;;;;;;3.17;2.40;;;;;;;8.17;100.00;100489.66;5057777;28;20021;-73
2024/03/16 08:46:10;;;;;;;0.93;0.73;;;;;;;8.20;100.00;100486.63;5058049;28;20386;-73
2024/03/16 08:48:35;;;;;;;1.15;0.70;;;;;;;8.23;100.00;100486.31;5041355;28;20028;-73
2024/03/16 08:51:01;;;;;;;4.18;2.45;;;;;;;8.26;100.00;100494.03;5041487;28;20090;-73
2024/03/16 08:53:30;;;;;;;2.78;1.77;;;;;;;8.26;100.00;100488.66;5042690;28;20086;-73
2024/03/16 08:55:58;;;;;;;9.35;4.20;;;;;;;8.23;100.00;100485.47;5042196;28;20455;-73
2024/03/16 08:58:30;;;;;;;1.90;0.98;;;;;;;8.24;100.00;100482.63;5041523;28;20029;-73
2024/03/16 09:00:55;;;;;;;0.70;0.70;;;;;;;8.23;100.00;100478.28;5074508;28;20039;-73
2024/03/16 09:03:21;;;;;;;4.68;1.48;;;;;;;8.25;100.00;100472.75;5041318;28;20126;-73
2024/03/16 09:05:46;;;;;;;1.77;0.98;;;;;;;8.28;100.00;100475.94;5041135;28;20025;-73
2024/03/16 09:08:12;;;;;;;0.50;0.50;;;;;;;8.30;100.00;100471.25;5040211;28;20044;-73
2024/03/16 09:10:38;;;;;;;2.70;1.08;;;;;;;8.32;100.00;100471.91;5041205;28;20096;-73
2024/03/16 09:13:06;;;;;;;9.68;4.35;;;;;;;8.37;100.00;100474.09;5041128;28;20025;-73
2024/03/16 09:15:32;;;;;;;1.67;1.35;;;;;;;8.46;100.00;100464.22;5041298;28;20127;-73
2024/03/16 09:17:57;;;;;;;0.77;0.50;;;;;;;8.54;100.00;100456.19;5040977;28;20167;-73
2024/03/16 09:20:23;;;;;;;2.20;0.90;;;;;;;8.64;100.00;100464.03;5057093;28;20032;-73
2024/03/16 09:22:52;;;;;;;1.45;1.08;;;;;;;8.73;100.00;100453.16;5057211;28;20525;-73
2024/03/16 09:25:20;;;;;;;0.70;0.70;;;;;;;8.77;100.00;100441.06;5073995;28;20039;-74
2024/03/16 09:27:46;;;;;;;0.85;0.75;;;;;;;8.83;100.00;100442.22;5040863;28;20039;-73
2024/03/16 09:30:14;;;;;;;0.70;0.70;;;;;;;8.96;100.00;100441.66;5040770;28;20047;-73
2024/03/16 09:32:39;;;;;;;3.63;0.85;;;;;;;9.17;100.00;100433.88;5057550;28;20044;-73
2024/03/16 09:35:10;;;;;;;2.00;1.52;;;;;;;9.23;100.00;100433.19;5056905;28;20029;-73
2024/03/16 09:37:36;;;;;;;1.50;1.30;;;;;;;9.28;100.00;100424.59;5057347;28;20036;-74
2024/03/16 09:40:13;;;;;;;1.88;1.25;;;;;;;9.33;100.00;100426.75;5057214;28;20047;-74
2024/03/16 09:42:39;;;;;;;2.03;1.50;;;;;;;9.36;100.00;100426.41;5041944;28;20035;-73
2024/03/16 09:45:18;;;;;;;2.55;1.42;;;;;;;9.34;100.00;100417.69;5056945;28;20037;-72
2024/03/16 09:47:47;;;;;;;1.10;0.98;;;;;;;9.33;100.00;100414.16;5056698;28;20109;-73
2024/03/16 09:50:14;;;;;;;3.65;1.20;;;;;;;9.31;100.00;100426.91;5041211;28;20036;-73
2024/03/16 09:52:40;;;;;;;2.42;1.33;;;;;;;9.33;100.00;100418.72;5073365;28;20059;-74
2024/03/16 09:55:09;;;;;;;3.83;2.25;;;;;;;9.42;100.00;100417.63;5040371;28;20028;-74
2024/03/16 09:57:38;;;;;;;6.18;3.97;;;;;;;9.52;100.00;100410.19;5040213;28;20123;-74
2024/03/16 10:00:05;;;;;;;5.50;3.20;;;;;;;9.73;100.00;100406.03;5040180;28;20127;-74
2024/03/16 10:02:31;;;;;;;3.53;2.38;;;;;;;9.93;100.00;100406.41;5056679;28;20158;-74
2024/03/16 10:04:57;;;;;;;1.10;1.00;;;;;;;9.94;100.00;100392.78;5040118;28;20123;-74
2024/03/16 10:07:23;;;;;;;1.05;0.93;;;;;;;9.85;100.00;100402.75;5040035;28;20348;-74
2024/03/16 10:09:53;;;;;;;0.68;0.65;;;;;;;9.96;100.00;100388.06;5072791;28;20028;-74
2024/03/16 10:12:23;;;;;;;3.33;1.58;;;;;;;10.19;100.00;100379.97;5056536;28;20039;-73
2024/03/16 10:15:20;;;;;;;1.35;1.13;;;;;;;10.36;100.00;100377.16;5056505;28;20060;-75
2024/03/16 10:17:49;;;;;;;1.25;1.00;;;;;;;10.38;100.00;100373.28;5056611;28;20036;-74
2024/03/16 10:20:18;;;;;;;0.60;0.60;;;;;;;10.53;100.00;100357.13;5039927;28;20090;-74
2024/03/16 10:22:48;;;;;;;0.70;0.70;;;;;;;10.68;100.00;100349.06;5040374;28;20036;-74
2024/03/16 10:25:18;;;;;;;2.60;1.55;;;;;;;10.74;100.00;100346.50;5055795;28;20040;-74
2024/03/16 10:27:44;;;;;;;2.15;1.83;;;;;;;10.83;100.00;100357.97;5072421;28;20115;-73
2024/03/16 10:30:17;;;;;;;7.30;4.10;;;;;;;10.93;100.00;100353.13;5056575;28;20040;-72
2024/03/16 10:32:46;;;;;;;7.53;3.45;;;;;;;11.17;100.00;100364.59;5056656;28;20044;-72
2024/03/16 10:35:16;;;;;;;4.38;2.47;;;;;;;11.29;100.00;100365.75;5056168;28;20372;-72
2024/03/16 10:37:45;;;;;;;3.88;1.40;;;;;;;11.28;100.00;100357.88;5072600;28;20036;-72
2024/03/16 10:40:21;;;;;;;4.82;2.88;;;;;;;11.07;100.00;100361.38;5056160;28;20037;-72
2024/03/16 10:42:48;;;;;;;8.57;4.80;;;;;;;10.93;100.00;100350.44;5056063;28;20029;-72
2024/03/16 10:45:16;;;;;;;13.55;6.45;;;;;;;10.94;100.00;100356.66;5055888;28;20032;-72
2024/03/16 10:47:50;;;;;;;6.07;3.72;;;;;;;10.81;100.00;100362.69;5055950;28;20044;-72
2024/03/16 10:50:19;;;;;;;5.68;3.38;;;;;;;10.82;100.00;100353.59;5056255;28;20037;-72
2024/03/16 10:52:48;;;;;;;2.30;1.52;;;;;;;10.86;100.00;100348.69;5055015;28;20062;-74
2024/03/16 10:55:22;;;;;;;3.67;1.90;;;;;;;10.90;100.00;100345.44;5053778;28;20118;-73
2024/03/16 10:57:49;;;;;;;5.68;3.85;;;;;;;10.95;100.00;100340.31;5037618;28;20024;-74
2024/03/16 11:00:34;;;;;;;3.53;2.38;;;;;;;10.99;100.00;100336.22;5070072;28;20056;-74
2024/03/16 11:03:12;;;;;;;5.05;3.53;;;;;;;10.94;100.00;100341.34;5053659;28;20040;-73
2024/03/16 11:05:40;;;;;;;5.78;3.97;;;;;;;10.90;100.00;100334.69;5070236;28;20109;-73
2024/03/16 11:08:11;;;;;;;5.80;4.13;;;;;;;10.87;100.00;100337.72;5070137;28;20025;-73
2024/03/16 11:10:48;;;;;;;3.08;1.90;;;;;;;10.84;100.00;100339.97;5055709;28;20032;-73
2024/03/16 11:13:20;;;;;;;4.07;2.55;;;;;;;10.77;100.00;100337.22;5039452;28;20039;-73
2024/03/16 11:15:49;;;;;;;5.13;2.92;;;;;;;10.60;100.00;100328.50;5055920;28;20052;-73
2024/03/16 11:18:18;;;;;;;2.75;1.42;;;;;;;10.55;100.00;100341.66;5071983;28;20558;-73
2024/03/16 11:20:53;;;;;;;1.77;1.38;;;;;;;10.50;100.00;100334.16;5056297;28;20086;-74